Bergland, MI

7:53 AM EDT on April 27, 2017 (GMT -0400)
Bergland Bay Bar | | Change Station
Active Advisory: Winter Weather Advisory

Elev 1299 ft 46.59 °N, 89.57 °W | Updated 4 seconds ago

Snow
Snow
26.2 °F
Feels Like 26 °F
N
0.9
Wind Variable Wind from NNW
Gusts 3.0 mph

Today
High -- | Low -- °F
--% Chance of Precip.
Yesterday
High -- | Low -- °F
Precip. -- in
Pressure 29.48 in
Visibility 4.0 miles
Clouds Overcast 400 ft
Windchill 26 °F
Dew Point 25 °F
Humidity 96%
Rainfall 0.00 in
Snow Depth Not available.
6:49 AM 9:02 PM
New Moon, 1% visible
SPECI KIWD 271148Z AUTO 36007KT 4SM -SN BR OVC004 M03/M04 A2948 RMK AO2 UPE46SNB46 P0000 FZRANO
Pressure 29.48 in
Visibility 4.0 miles
Clouds Overcast 400 ft
Windchill 26 °F
Dew Point 25 °F
Humidity 96%
Rainfall 0.00 in
Snow Depth Not available.
6:49 AM 9:02 PM
New Moon, 1% visible
SPECI KIWD 271148Z AUTO 36007KT 4SM -SN BR OVC004 M03/M04 A2948 RMK AO2 UPE46SNB46 P0000 FZRANO

Get Your Daily Forecast Email!

Thanks for signing up!

Be on the lookout for a verification email in your inbox.

You'll start receiving severe weather alerts in your inbox..

×

10-Day Weather Forecast

Almanac

Astronomy

Apr. 27, 2017 Rise Set
Actual Time
Civil Twilight
Nautical Twilight
Astronomical Twilight
Moon
Length of Visible Light
Length of Day
Tomorrow will be .
, % of the Moon is Illuminated

Today's Extremes

State Highs State Lows

Community

WunderPhotos

WunderBlog® & News

Nearby

Air Quality

  Air Quality AQ Index Pollutant
Not available.

Snow Depth

Station Depth Elevation

Earthquake Activity

City Distance Mag. Time & Date
Minimum magnitude displayed is 2.5.

Coastal Water Temperatures

Place Temperature

Stations

Nearby Weather Stations

Station Location Temp. Windchill Dew Point Humidity Wind Precip. Elev Updated Type
                   

Watches & Warnings

Winter Weather Advisory
Issued: 3:28 AM CDT Apr. 27, 2017 – National Weather Service

... Winter Weather Advisory remains in effect until 1 PM EDT /noon
CDT/ this afternoon...

Hazardous weather...

* snow will mix with freezing rain and sleet at times this
   morning before changing to snow this afternoon. Additional ice
   accumulations up to one-tenth of an inch are expected.
   Additional sleet and snow accumulations will range from 1 to 4
   inches, with the most snow occurring over Ontonagon County.

Impacts...

* any additional ice accumulation this morning will occur on
   elevated surfaces such as trees and power lines.

* Due to the snow, sleet and freezing rain, untreated roads will
   become very slippery. Use caution if traveling.

Precautionary/preparedness actions...

* a Winter Weather Advisory means that periods of snow, sleet,
   or freezing rain will cause travel difficulties.

* Prepare, plan, and stay informed. Visit www.Weather.Gov/MQT



Jla